Time;durP1;ratioP1;P1;durP2;ratioP2;P2;SDS_P1;SDS_P2;PMS_P1;PMS_P2;Temp;Humidity;BMP_temperature;BMP_pressure;BME280_temperature;BME280_humidity;BME280_pressure;Samples;Min_cycle;Max_cycle;Signal;HPM_P1;HPM_P2
2022/12/09 00:00:16;;;;;;;1999.90;999.90;;;3.20;99.90;;;;;;5032894;28;20200;-67
2022/12/09 00:02:41;;;;;;;1999.90;999.90;;;3.10;99.90;;;;;;5032804;28;20169;-67
2022/12/09 00:05:07;;;;;;;1999.90;999.90;;;3.00;99.90;;;;;;5032678;28;20184;-67
2022/12/09 00:07:35;;;;;;;1999.90;999.90;;;3.00;99.90;;;;;;5032518;28;20177;-67
2022/12/09 00:10:01;;;;;;;1999.90;999.90;;;3.00;99.90;;;;;;5032648;28;20184;-67
2022/12/09 00:12:26;;;;;;;1999.90;999.90;;;2.90;99.90;;;;;;5032729;28;20214;-68
2022/12/09 00:14:52;;;;;;;1999.90;999.90;;;2.80;99.90;;;;;;5032470;28;20434;-68
2022/12/09 00:17:17;;;;;;;1999.90;999.90;;;2.70;99.90;;;;;;5032337;28;20172;-68
2022/12/09 00:19:43;;;;;;;1999.90;999.90;;;2.60;99.90;;;;;;5032491;28;20170;-68
2022/12/09 00:22:08;;;;;;;1999.90;999.90;;;2.50;99.90;;;;;;5032511;28;20517;-67
2022/12/09 00:24:34;;;;;;;1999.90;999.90;;;2.50;99.90;;;;;;5032170;28;20196;-67
2022/12/09 00:26:59;;;;;;;1999.90;999.90;;;2.40;99.90;;;;;;5031890;28;20202;-68
2022/12/09 00:29:25;;;;;;;1999.90;999.90;;;2.40;99.90;;;;;;5032293;28;20260;-68
2022/12/09 00:31:51;;;;;;;1999.90;999.90;;;2.30;99.90;;;;;;5032270;28;20168;-68
2022/12/09 00:34:16;;;;;;;1999.90;999.90;;;2.30;99.90;;;;;;5032252;28;20196;-68
2022/12/09 00:36:42;;;;;;;1999.90;999.90;;;2.30;99.90;;;;;;5032073;28;20170;-67
2022/12/09 00:39:10;;;;;;;1999.90;999.90;;;2.30;99.90;;;;;;5032156;28;20168;-67
2022/12/09 00:41:36;;;;;;;1999.90;999.90;;;2.30;99.90;;;;;;5032351;28;20603;-67
2022/12/09 00:44:02;;;;;;;1999.90;999.90;;;2.30;99.90;;;;;;5032177;28;20262;-68
2022/12/09 00:46:27;;;;;;;1999.90;999.90;;;2.30;99.90;;;;;;5031899;28;20199;-68
2022/12/09 00:48:53;;;;;;;1999.90;999.90;;;2.40;99.90;;;;;;5031442;28;20169;-67
2022/12/09 00:51:21;;;;;;;1999.90;999.90;;;2.50;99.90;;;;;;5032134;28;20176;-67
2022/12/09 00:53:47;;;;;;;1999.90;999.90;;;2.50;99.90;;;;;;5031718;28;20212;-67
2022/12/09 00:56:12;;;;;;;1999.90;999.90;;;2.50;99.90;;;;;;5031886;28;20697;-67
2022/12/09 00:58:38;;;;;;;1999.90;999.90;;;2.60;99.90;;;;;;5031956;28;20172;-67
2022/12/09 01:01:04;;;;;;;1999.90;999.90;;;2.60;99.90;;;;;;5031987;28;20164;-67
2022/12/09 01:03:30;;;;;;;1999.90;999.90;;;2.60;99.90;;;;;;5031858;28;20192;-68
2022/12/09 01:05:55;;;;;;;1999.90;999.90;;;2.60;99.90;;;;;;5031854;28;20403;-68
2022/12/09 01:08:21;;;;;;;1999.90;999.90;;;2.60;99.90;;;;;;5031600;28;20518;-68
2022/12/09 01:10:47;;;;;;;1999.90;999.90;;;2.60;99.90;;;;;;5031820;28;20176;-68
2022/12/09 01:13:14;;;;;;;1999.90;999.90;;;2.60;99.90;;;;;;5031704;28;20704;-68
2022/12/09 01:15:40;;;;;;;1999.90;999.90;;;2.60;99.90;;;;;;5031881;28;20188;-68
2022/12/09 01:18:06;;;;;;;1999.90;999.90;;;2.60;99.90;;;;;;5031574;28;20172;-68
2022/12/09 01:20:32;;;;;;;1999.90;999.90;;;2.60;99.90;;;;;;5031793;28;20544;-68
2022/12/09 01:22:58;;;;;;;1999.90;999.90;;;2.60;99.90;;;;;;5031643;28;20172;-68
2022/12/09 01:25:24;;;;;;;1999.90;999.90;;;2.60;99.90;;;;;;5031618;28;20175;-68
2022/12/09 01:27:49;;;;;;;1999.90;999.90;;;2.50;99.90;;;;;;5031140;28;20481;-68
2022/12/09 01:30:15;;;;;;;1999.90;999.90;;;2.50;99.90;;;;;;5031676;28;20179;-68
2022/12/09 01:32:41;;;;;;;1999.90;999.90;;;2.50;99.90;;;;;;5031569;28;20713;-68
2022/12/09 01:35:08;;;;;;;1999.90;999.90;;;2.50;99.90;;;;;;5031582;28;20275;-68
2022/12/09 01:37:35;;;;;;;1999.90;999.90;;;2.50;99.90;;;;;;5031344;28;20169;-68
2022/12/09 01:40:02;;;;;;;1999.90;999.90;;;2.50;99.90;;;;;;5031526;28;20179;-68
2022/12/09 01:42:28;;;;;;;1999.90;999.90;;;2.50;99.90;;;;;;5031594;28;20195;-67
2022/12/09 01:45:18;;;;;;;1999.90;999.90;;;2.40;99.90;;;;;;5031515;28;20192;-68
2022/12/09 01:47:45;;;;;;;1999.90;999.90;;;2.40;99.90;;;;;;5031175;28;20545;-68
2022/12/09 01:50:11;;;;;;;1999.90;999.90;;;2.30;99.90;;;;;;5031492;28;20227;-68
2022/12/09 01:52:36;;;;;;;1999.90;999.90;;;2.30;99.90;;;;;;5031262;28;20204;-68
2022/12/09 01:55:02;;;;;;;1999.90;999.90;;;2.30;99.90;;;;;;5031412;28;20185;-68
2022/12/09 01:57:28;;;;;;;1999.90;999.90;;;2.20;99.90;;;;;;5031186;28;20484;-68
2022/12/09 01:59:54;;;;;;;1999.90;999.90;;;2.20;99.90;;;;;;5034369;28;20165;-68
2022/12/09 02:02:20;;;;;;;1999.90;999.90;;;2.10;99.90;;;;;;5035041;28;20175;-68
2022/12/09 02:04:47;;;;;;;1999.90;999.90;;;2.10;99.90;;;;;;5034922;28;20257;-68
2022/12/09 02:07:13;;;;;;;1999.90;999.90;;;2.10;99.90;;;;;;5034698;28;20176;-68
2022/12/09 02:09:39;;;;;;;1999.90;999.90;;;2.10;99.90;;;;;;5034777;28;20168;-68
2022/12/09 02:12:12;;;;;;;1999.90;999.90;;;2.00;99.90;;;;;;5034911;28;20190;-68
2022/12/09 02:14:52;;;;;;;1999.90;999.90;;;2.00;99.90;;;;;;5034912;28;20198;-68
2022/12/09 02:17:39;;;;;;;1999.90;999.90;;;2.00;99.90;;;;;;5034712;28;20616;-68
2022/12/09 02:20:31;;;;;;;1999.90;999.90;;;2.00;99.90;;;;;;5034808;28;20541;-68
2022/12/09 02:23:18;;;;;;;1999.90;999.90;;;2.00;99.90;;;;;;5034626;28;20229;-68
2022/12/09 02:26:15;;;;;;;1999.90;999.90;;;2.00;99.90;;;;;;5034546;28;20223;-68
2022/12/09 02:28:54;;;;;;;1999.90;999.90;;;2.10;99.90;;;;;;5034126;28;20192;-67
2022/12/09 02:31:25;;;;;;;1999.90;999.90;;;2.00;99.90;;;;;;5034640;28;20251;-68
2022/12/09 02:34:04;;;;;;;1999.90;999.90;;;2.00;99.90;;;;;;5034295;28;20211;-68
2022/12/09 02:36:38;;;;;;;1999.90;999.90;;;2.00;99.90;;;;;;5034427;28;20234;-68
2022/12/09 02:39:06;;;;;;;1999.90;999.90;;;2.00;99.90;;;;;;5034271;28;20191;-68
2022/12/09 02:41:34;;;;;;;1999.90;999.90;;;2.00;99.90;;;;;;5034403;28;20172;-68
2022/12/09 02:44:10;;;;;;;1999.90;999.90;;;1.90;99.90;;;;;;5034172;28;20207;-68
2022/12/09 02:46:38;;;;;;;1999.90;999.90;;;1.90;99.90;;;;;;5034201;28;20172;-69
2022/12/09 02:49:04;;;;;;;1999.90;999.90;;;2.00;99.90;;;;;;5034031;28;20172;-68
2022/12/09 02:51:34;;;;;;;1999.90;999.90;;;2.00;99.90;;;;;;5034206;28;20704;-68
2022/12/09 02:54:08;;;;;;;1999.90;999.90;;;2.00;99.90;;;;;;5033961;28;20216;-68
2022/12/09 02:56:35;;;;;;;1999.90;999.90;;;1.90;99.90;;;;;;5034024;28;20245;-68
2022/12/09 02:59:00;;;;;;;1999.90;999.90;;;1.90;99.90;;;;;;5033845;28;20173;-68
2022/12/09 03:01:51;;;;;;;1999.90;999.90;;;1.90;99.90;;;;;;5033976;28;20233;-68
2022/12/09 03:04:22;;;;;;;1999.90;999.90;;;1.90;99.90;;;;;;5033892;28;20192;-68
2022/12/09 03:06:51;;;;;;;1999.90;999.90;;;1.90;99.90;;;;;;5033696;28;20697;-68
2022/12/09 03:09:24;;;;;;;1999.90;999.90;;;2.00;99.90;;;;;;5034046;28;20526;-67
2022/12/09 03:11:50;;;;;;;1999.90;999.90;;;2.00;99.90;;;;;;5033337;28;20242;-67
2022/12/09 03:14:26;;;;;;;1999.90;999.90;;;2.10;99.90;;;;;;5033818;28;20561;-67
2022/12/09 03:17:04;;;;;;;1999.90;999.90;;;2.10;99.90;;;;;;5033512;28;20172;-67
2022/12/09 03:19:32;;;;;;;1999.90;999.90;;;2.10;99.90;;;;;;5034050;28;20172;-67
2022/12/09 03:22:03;;;;;;;1999.90;999.90;;;2.00;99.90;;;;;;5033592;28;20299;-67
2022/12/09 03:24:45;;;;;;;1999.90;999.90;;;1.90;99.90;;;;;;5033573;28;20185;-67
2022/12/09 03:27:17;;;;;;;1999.90;999.90;;;1.90;99.90;;;;;;5032990;28;20306;-67
2022/12/09 03:29:46;;;;;;;1999.90;999.90;;;1.80;99.90;;;;;;5033343;28;20169;-67
2022/12/09 03:32:13;;;;;;;1999.90;999.90;;;1.80;99.90;;;;;;5033393;28;20231;-67
2022/12/09 03:34:43;;;;;;;1999.90;999.90;;;1.80;99.90;;;;;;5033333;28;20214;-67
2022/12/09 03:37:11;;;;;;;1999.90;999.90;;;1.80;99.90;;;;;;5033061;28;20218;-67
2022/12/09 03:39:39;;;;;;;1999.90;999.90;;;1.70;99.90;;;;;;5033214;28;20533;-67
2022/12/09 03:42:13;;;;;;;1999.90;999.90;;;1.80;99.90;;;;;;5033214;28;20230;-66
2022/12/09 03:44:50;;;;;;;1999.90;999.90;;;1.80;99.90;;;;;;5033164;28;20199;-67
2022/12/09 03:47:16;;;;;;;1999.90;999.90;;;1.80;99.90;;;;;;5032881;28;20168;-67
2022/12/09 03:49:42;;;;;;;1999.90;999.90;;;1.70;99.90;;;;;;5033014;28;20214;-67
2022/12/09 03:52:12;;;;;;;1999.90;999.90;;;1.60;99.90;;;;;;5032988;28;20593;-67
2022/12/09 03:54:46;;;;;;;1999.90;999.90;;;1.60;99.90;;;;;;5032879;28;20200;-67
2022/12/09 03:57:17;;;;;;;1999.90;999.90;;;1.60;99.90;;;;;;5032760;28;20226;-67
2022/12/09 03:59:53;;;;;;;1999.90;999.90;;;1.60;99.90;;;;;;5033109;28;20173;-67
2022/12/09 04:02:19;;;;;;;1999.90;999.90;;;1.50;99.90;;;;;;5032824;28;20191;-67
2022/12/09 04:04:44;;;;;;;1999.90;999.90;;;1.50;99.90;;;;;;5032733;28;20192;-67
2022/12/09 04:07:10;;;;;;;1999.90;999.90;;;1.40;99.90;;;;;;5032620;28;20711;-67
2022/12/09 04:09:36;;;;;;;1999.90;999.90;;;1.30;99.90;;;;;;5032639;28;20168;-67
2022/12/09 04:12:02;;;;;;;1999.90;999.90;;;1.30;99.90;;;;;;5032618;28;20547;-67
2022/12/09 04:14:28;;;;;;;1999.90;999.90;;;1.20;99.90;;;;;;5032627;28;20600;-67
2022/12/09 04:16:53;;;;;;;1999.90;999.90;;;1.20;99.90;;;;;;5032378;28;20176;-67
2022/12/09 04:19:19;;;;;;;1999.90;999.90;;;1.10;99.90;;;;;;5032531;28;20169;-67
2022/12/09 04:21:44;;;;;;;1999.90;999.90;;;1.20;99.90;;;;;;5031907;28;20171;-67
2022/12/09 04:24:10;;;;;;;1999.90;999.90;;;1.20;99.90;;;;;;5032109;28;20232;-67
2022/12/09 04:26:35;;;;;;;1999.90;999.90;;;1.20;99.90;;;;;;5032506;28;20168;-67
2022/12/09 04:29:02;;;;;;;1999.90;999.90;;;1.10;99.90;;;;;;5032170;28;20172;-67
2022/12/09 04:31:27;;;;;;;1999.90;999.90;;;1.00;99.90;;;;;;5032374;28;20188;-67
2022/12/09 04:33:53;;;;;;;1999.90;999.90;;;1.00;99.90;;;;;;5032155;28;20212;-66
2022/12/09 04:36:19;;;;;;;1999.90;999.90;;;1.00;99.90;;;;;;5032183;28;20631;-67
2022/12/09 04:38:46;;;;;;;1999.90;999.90;;;0.90;99.90;;;;;;5032072;28;20192;-68
2022/12/09 04:41:12;;;;;;;1999.90;999.90;;;0.90;99.90;;;;;;5032199;28;20183;-67
2022/12/09 04:43:38;;;;;;;1999.90;999.90;;;0.90;99.90;;;;;;5032150;28;20220;-67
2022/12/09 04:46:06;;;;;;;1999.90;999.90;;;0.90;99.90;;;;;;5032064;28;20689;-67
2022/12/09 04:48:32;;;;;;;1999.90;999.90;;;0.90;99.90;;;;;;5031999;28;20754;-67
2022/12/09 04:50:58;;;;;;;1999.90;999.90;;;0.90;99.90;;;;;;5032057;28;20267;-67
2022/12/09 04:53:25;;;;;;;1999.90;999.90;;;0.90;99.90;;;;;;5031798;28;20459;-67
2022/12/09 04:56:01;;;;;;;1999.90;999.90;;;0.80;99.90;;;;;;5032086;28;20403;-67
2022/12/09 04:58:28;;;;;;;1999.90;999.90;;;0.90;99.90;;;;;;5031833;28;20169;-67
2022/12/09 05:00:53;;;;;;;1999.90;999.90;;;0.90;99.90;;;;;;5032011;28;20164;-67
2022/12/09 05:03:19;;;;;;;1999.90;999.90;;;0.90;99.90;;;;;;5031856;28;20683;-67
2022/12/09 05:05:44;;;;;;;1999.90;999.90;;;0.90;99.90;;;;;;5031859;28;20787;-68
2022/12/09 05:08:10;;;;;;;1999.90;999.90;;;0.90;99.90;;;;;;5031610;28;20172;-67
2022/12/09 05:10:36;;;;;;;1999.90;999.90;;;0.80;99.90;;;;;;5031895;28;20200;-68
2022/12/09 05:13:01;;;;;;;1999.90;999.90;;;0.80;99.90;;;;;;5031765;28;20203;-68
2022/12/09 05:15:27;;;;;;;1999.90;999.90;;;0.70;99.90;;;;;;5031927;28;20172;-68
2022/12/09 05:17:53;;;;;;;1999.90;999.90;;;0.60;99.90;;;;;;5031546;28;20701;-68
2022/12/09 05:20:18;;;;;;;1999.90;999.90;;;0.40;99.90;;;;;;5031662;28;20176;-68
2022/12/09 05:22:44;;;;;;;1999.90;999.90;;;0.50;99.90;;;;;;5031746;28;20168;-68
2022/12/09 05:25:10;;;;;;;1999.90;999.90;;;0.50;99.90;;;;;;5031634;28;20196;-68
2022/12/09 05:27:35;;;;;;;1999.90;999.90;;;0.50;99.90;;;;;;5031614;28;20182;-68
2022/12/09 05:30:01;;;;;;;1999.90;999.90;;;0.50;99.90;;;;;;5031713;28;20287;-68
2022/12/09 05:32:29;;;;;;;1999.90;999.90;;;0.60;99.90;;;;;;5031362;28;20198;-68
2022/12/09 05:34:55;;;;;;;1999.90;999.90;;;0.50;99.90;;;;;;5034710;28;20193;-68
2022/12/09 05:37:21;;;;;;;1999.90;999.90;;;0.50;99.90;;;;;;5035386;28;20353;-68
2022/12/09 05:39:47;;;;;;;1999.90;999.90;;;0.60;99.90;;;;;;5035483;28;20681;-68
2022/12/09 05:42:13;;;;;;;1999.90;999.90;;;0.60;99.90;;;;;;5035536;28;20644;-68
2022/12/09 05:44:38;;;;;;;1999.90;999.90;;;0.70;99.90;;;;;;5035275;28;20279;-68
2022/12/09 05:47:04;;;;;;;1999.90;999.90;;;0.80;99.90;;;;;;5035119;28;20647;-68
2022/12/09 05:49:29;;;;;;;1999.90;999.90;;;0.90;99.90;;;;;;5035256;28;20536;-68
2022/12/09 05:51:55;;;;;;;1999.90;999.90;;;1.00;99.90;;;;;;5035454;28;20184;-67
2022/12/09 05:54:21;;;;;;;1999.90;999.90;;;1.10;99.90;;;;;;5035134;28;20217;-67
2022/12/09 05:56:46;;;;;;;1999.90;999.90;;;1.20;99.90;;;;;;5035135;28;20175;-67
2022/12/09 05:59:12;;;;;;;1999.90;999.90;;;1.20;99.90;;;;;;5035184;28;20180;-67
2022/12/09 06:01:37;;;;;;;1999.90;999.90;;;1.30;99.90;;;;;;5035072;28;20238;-68
2022/12/09 06:04:03;;;;;;;1999.90;999.90;;;1.30;99.90;;;;;;5034893;28;20192;-68
2022/12/09 06:06:30;;;;;;;1999.90;999.90;;;1.40;99.90;;;;;;5034968;28;20673;-68
2022/12/09 06:08:58;;;;;;;1999.90;999.90;;;1.50;99.90;;;;;;5034984;28;20222;-68
2022/12/09 06:11:24;;;;;;;1999.90;999.90;;;1.50;99.90;;;;;;5034975;28;20168;-68
2022/12/09 06:13:50;;;;;;;1999.90;999.90;;;1.50;99.90;;;;;;5034825;28;20835;-68
2022/12/09 06:16:20;;;;;;;1999.90;999.90;;;1.50;99.90;;;;;;5034738;28;20175;-68
2022/12/09 06:18:46;;;;;;;1999.90;999.90;;;1.50;99.90;;;;;;5034593;28;20226;-68
2022/12/09 06:21:13;;;;;;;1999.90;999.90;;;1.50;99.90;;;;;;5034796;28;20173;-68
2022/12/09 06:23:41;;;;;;;1999.90;999.90;;;1.40;99.90;;;;;;5034697;28;20192;-68
2022/12/09 06:26:13;;;;;;;1999.90;999.90;;;1.40;99.90;;;;;;5034608;28;20177;-68
2022/12/09 06:28:38;;;;;;;1999.90;999.90;;;1.30;99.90;;;;;;5034587;28;20168;-68
2022/12/09 06:31:04;;;;;;;1999.90;999.90;;;1.30;99.90;;;;;;5029706;28;20660;-68
2022/12/09 06:33:30;;;;;;;1999.90;999.90;;;1.30;99.90;;;;;;4995012;28;20328;-67
2022/12/09 06:36:00;;;;;;;1999.90;999.90;;;1.30;99.90;;;;;;4995017;28;20170;-67
2022/12/09 06:38:25;;;;;;;1999.90;999.90;;;1.40;99.90;;;;;;4994876;28;20174;-67
2022/12/09 06:40:51;;;;;;;1999.90;999.90;;;1.40;99.90;;;;;;4995042;28;20181;-67
2022/12/09 06:43:17;;;;;;;1999.90;999.90;;;1.40;99.90;;;;;;5005901;28;20203;-67
2022/12/09 06:45:42;;;;;;;1999.90;999.90;;;1.40;99.90;;;;;;5013414;28;20215;-67
2022/12/09 06:48:08;;;;;;;1999.90;999.90;;;1.40;99.90;;;;;;5014225;28;20173;-67
2022/12/09 06:50:33;;;;;;;1999.90;999.90;;;1.30;99.90;;;;;;5014438;28;20169;-67
2022/12/09 06:52:59;;;;;;;1999.90;999.90;;;1.30;99.90;;;;;;5014122;28;20569;-67
2022/12/09 06:55:25;;;;;;;1999.90;999.90;;;1.30;99.90;;;;;;5014400;28;20173;-67
2022/12/09 06:57:50;;;;;;;1999.90;999.90;;;1.20;99.90;;;;;;5014070;28;20180;-67
2022/12/09 07:00:16;;;;;;;1999.90;999.90;;;1.20;99.90;;;;;;5014166;28;20238;-67
2022/12/09 07:02:41;;;;;;;1999.90;999.90;;;1.10;99.90;;;;;;5014164;28;20172;-67
2022/12/09 07:05:08;;;;;;;1999.90;999.90;;;1.10;99.90;;;;;;5014267;28;20200;-67
2022/12/09 07:07:33;;;;;;;1999.90;999.90;;;1.00;99.90;;;;;;5013943;28;20683;-66
2022/12/09 07:10:02;;;;;;;1999.90;999.90;;;1.00;99.90;;;;;;5014041;28;20271;-67
2022/12/09 07:12:28;;;;;;;1999.90;999.90;;;1.00;99.90;;;;;;5013965;28;20205;-67
2022/12/09 07:14:53;;;;;;;1999.90;999.90;;;0.90;99.90;;;;;;5013907;28;20246;-67
2022/12/09 07:17:19;;;;;;;1999.90;999.90;;;0.90;99.90;;;;;;5013883;28;20165;-67
2022/12/09 07:19:46;;;;;;;1999.90;999.90;;;0.90;99.90;;;;;;5013846;28;20157;-67
2022/12/09 07:22:12;;;;;;;1999.90;999.90;;;0.90;99.90;;;;;;5013856;28;20184;-67
2022/12/09 07:24:38;;;;;;;1999.90;999.90;;;0.90;99.90;;;;;;5013740;28;20193;-67
2022/12/09 07:27:06;;;;;;;1999.90;999.90;;;0.90;99.90;;;;;;5013692;28;20491;-67
2022/12/09 07:29:33;;;;;;;1999.90;999.90;;;0.90;99.90;;;;;;5013553;28;20219;-67
2022/12/09 07:31:59;;;;;;;1999.90;999.90;;;0.90;99.90;;;;;;5013537;28;20669;-67
2022/12/09 07:34:24;;;;;;;1999.90;999.90;;;0.90;99.90;;;;;;5013457;28;20193;-67
2022/12/09 07:36:50;;;;;;;1999.90;999.90;;;0.90;99.90;;;;;;5013072;28;20169;-67
2022/12/09 07:39:17;;;;;;;1999.90;999.90;;;0.90;99.90;;;;;;5013440;28;20256;-67
2022/12/09 07:41:43;;;;;;;1999.90;999.90;;;0.90;99.90;;;;;;5013511;28;20208;-68
2022/12/09 07:44:10;;;;;;;1999.90;999.90;;;0.90;99.90;;;;;;5013322;28;20197;-68
2022/12/09 07:46:35;;;;;;;1999.90;999.90;;;1.00;99.90;;;;;;5013359;28;20408;-68
2022/12/09 07:49:03;;;;;;;1999.90;999.90;;;1.00;99.90;;;;;;5013193;28;20271;-68
2022/12/09 07:51:29;;;;;;;1999.90;999.90;;;1.10;99.90;;;;;;5013338;28;20408;-68
2022/12/09 07:53:55;;;;;;;1999.90;999.90;;;1.20;99.90;;;;;;5013061;28;20292;-68
2022/12/09 07:56:22;;;;;;;1999.90;999.90;;;1.30;99.90;;;;;;5013008;28;20603;-68
2022/12/09 07:58:53;;;;;;;1999.90;999.90;;;1.30;99.90;;;;;;5012979;28;20264;-68
2022/12/09 08:01:27;;;;;;;1999.90;999.90;;;1.30;99.90;;;;;;5013372;28;20168;-68
2022/12/09 08:03:53;;;;;;;1999.90;999.90;;;1.40;99.90;;;;;;5013125;28;20265;-68
2022/12/09 08:06:22;;;;;;;1999.90;999.90;;;1.40;99.90;;;;;;5013045;28;20219;-68
2022/12/09 08:08:47;;;;;;;1999.90;999.90;;;1.50;99.90;;;;;;5012810;28;20169;-68
2022/12/09 08:11:14;;;;;;;1999.90;999.90;;;1.60;99.90;;;;;;5012918;28;20177;-67
2022/12/09 08:13:40;;;;;;;1999.90;999.90;;;1.70;99.90;;;;;;5012863;28;20208;-67
2022/12/09 08:16:08;;;;;;;1999.90;999.90;;;1.70;99.90;;;;;;5012940;28;20174;-68
2022/12/09 08:18:34;;;;;;;1999.90;999.90;;;1.70;99.90;;;;;;5012669;28;20228;-68
2022/12/09 08:21:08;;;;;;;1999.90;999.90;;;1.80;99.90;;;;;;5012805;28;20669;-68
2022/12/09 08:23:33;;;;;;;1999.90;999.90;;;1.80;99.90;;;;;;5012695;28;20196;-68
2022/12/09 08:25:59;;;;;;;1999.90;999.90;;;1.90;99.90;;;;;;5012623;28;20177;-68
2022/12/09 08:28:25;;;;;;;1999.90;999.90;;;2.10;99.90;;;;;;5012486;28;20168;-68
2022/12/09 08:30:51;;;;;;;1999.90;999.90;;;2.10;99.90;;;;;;5012633;28;20177;-68
2022/12/09 08:33:17;;;;;;;1999.90;999.90;;;2.20;99.90;;;;;;5012488;28;20808;-68
2022/12/09 08:35:43;;;;;;;1999.90;999.90;;;2.30;99.90;;;;;;5012461;28;20169;-68
2022/12/09 08:38:09;;;;;;;1999.90;999.90;;;2.40;99.90;;;;;;5011870;28;20407;-68
2022/12/09 08:40:36;;;;;;;1999.90;999.90;;;2.50;99.90;;;;;;5012409;28;20743;-68
2022/12/09 08:43:07;;;;;;;1999.90;999.90;;;2.50;99.90;;;;;;5012427;28;20181;-68
2022/12/09 08:45:37;;;;;;;1999.90;999.90;;;2.50;99.90;;;;;;5012397;28;20216;-68
2022/12/09 08:48:03;;;;;;;1999.90;999.90;;;2.50;99.90;;;;;;5012204;28;20669;-68
2022/12/09 08:50:29;;;;;;;1999.90;999.90;;;2.60;99.90;;;;;;5012369;28;20209;-67
2022/12/09 08:52:54;;;;;;;1999.90;999.90;;;2.60;99.90;;;;;;5012149;28;20256;-68
2022/12/09 08:55:20;;;;;;;1999.90;999.90;;;2.60;99.90;;;;;;5012301;28;20260;-68
2022/12/09 08:57:45;;;;;;;1999.90;999.90;;;2.60;99.90;;;;;;5012055;28;20161;-68
2022/12/09 09:00:11;;;;;;;1999.90;999.90;;;2.60;99.90;;;;;;5012246;28;20173;-68
2022/12/09 09:02:37;;;;;;;1999.90;999.90;;;2.60;99.90;;;;;;5012353;28;20690;-68
2022/12/09 09:05:02;;;;;;;1999.90;999.90;;;2.60;99.90;;;;;;5012117;28;20478;-68
2022/12/09 09:07:30;;;;;;;1999.90;999.90;;;2.50;99.90;;;;;;5011823;28;20208;-68
2022/12/09 09:09:55;;;;;;;1999.90;999.90;;;2.30;99.90;;;;;;5011781;28;20169;-68
2022/12/09 09:12:21;;;;;;;1999.90;999.90;;;2.30;99.90;;;;;;5012190;28;20216;-68
2022/12/09 09:14:46;;;;;;;1999.90;999.90;;;2.30;99.90;;;;;;5011966;28;20195;-68
2022/12/09 09:17:12;;;;;;;1999.90;999.90;;;2.20;99.90;;;;;;5011945;28;20169;-68
2022/12/09 09:19:38;;;;;;;1999.90;999.90;;;2.10;99.90;;;;;;5072021;22;20665;-67
2022/12/09 09:22:03;;;;;;;1999.90;999.90;;;2.00;99.90;;;;;;5036286;28;20652;-67
2022/12/09 09:24:30;;;;;;;1999.90;999.90;;;1.90;99.90;;;;;;5033266;28;20181;-67
2022/12/09 09:26:56;;;;;;;1999.90;999.90;;;1.90;99.90;;;;;;5034911;28;20569;-66
2022/12/09 09:29:22;;;;;;;1999.90;999.90;;;2.00;99.90;;;;;;5032956;28;20585;-66
2022/12/09 09:31:52;;;;;;;1999.90;999.90;;;2.00;99.90;;;;;;5034795;28;20186;-66
2022/12/09 09:34:18;;;;;;;1999.90;999.90;;;2.10;99.90;;;;;;5034219;28;20572;-66
2022/12/09 09:36:44;;;;;;;1999.90;999.90;;;2.00;99.90;;;;;;5033138;28;20168;-66
2022/12/09 09:39:09;;;;;;;1999.90;999.90;;;1.90;99.90;;;;;;5034613;28;20185;-66
2022/12/09 09:41:44;;;;;;;1999.90;999.90;;;1.90;99.90;;;;;;5035366;28;20169;-66
2022/12/09 09:44:17;;;;;;;1999.90;999.90;;;2.00;99.90;;;;;;5033113;28;20488;-67
2022/12/09 09:46:45;;;;;;;1999.90;999.90;;;2.20;99.90;;;;;;5033038;28;20169;-66
2022/12/09 09:49:26;;;;;;;1999.90;999.90;;;2.30;99.90;;;;;;5034636;28;20200;-65
2022/12/09 09:51:53;;;;;;;1999.90;999.90;;;2.40;99.90;;;;;;5035063;28;20157;-67
2022/12/09 09:54:19;;;;;;;1999.90;999.90;;;2.50;99.90;;;;;;5033937;28;20204;-66
2022/12/09 09:56:59;;;;;;;1999.90;999.90;;;2.60;99.90;;;;;;5032366;28;20164;-65
2022/12/09 09:59:49;;;;;;;1999.90;999.90;;;2.80;99.90;;;;;;5032215;28;20423;-66
2022/12/09 10:02:43;;;;;;;1999.90;999.90;;;2.90;99.90;;;;;;5034188;28;20176;-67
2022/12/09 10:05:32;;;;;;;1999.90;999.90;;;3.20;99.90;;;;;;5032787;28;20164;-66
2022/12/09 10:08:21;;;;;;;1999.90;999.90;;;3.30;99.90;;;;;;5032649;28;20198;-67
2022/12/09 10:11:21;;;;;;;1999.90;999.90;;;3.50;99.90;;;;;;5033341;28;20294;-67
2022/12/09 10:14:06;;;;;;;1999.90;999.90;;;3.60;99.90;;;;;;5034122;28;20746;-67
2022/12/09 10:16:43;;;;;;;1999.90;999.90;;;3.70;99.90;;;;;;5033130;28;20234;-66
2022/12/09 10:19:18;;;;;;;1999.90;999.90;;;3.80;99.90;;;;;;5032710;28;20724;-67
2022/12/09 10:21:45;;;;;;;1999.90;999.90;;;3.80;99.90;;;;;;5037299;28;20740;-67
2022/12/09 10:24:25;;;;;;;1999.90;999.90;;;3.80;99.90;;;;;;5038066;28;20168;-65
2022/12/09 10:27:13;;;;;;;1999.90;999.90;;;3.80;99.90;;;;;;5036631;28;20199;-66
2022/12/09 10:30:00;;;;;;;1999.90;999.90;;;3.80;1.00;;;;;;5037926;28;20190;-66
2022/12/09 10:32:31;;;;;;;1999.90;999.90;;;3.90;1.00;;;;;;5036336;28;20200;-67
2022/12/09 10:34:57;;;;;;;1999.90;999.90;;;4.00;1.00;;;;;;5036787;28;20165;-66
2022/12/09 10:37:28;;;;;;;1999.90;999.90;;;4.10;1.00;;;;;;5036266;28;20169;-67
2022/12/09 10:40:22;;;;;;;1999.90;999.90;;;4.20;1.00;;;;;;5036216;28;20188;-67
2022/12/09 10:45:53;;;;;;;1999.90;999.90;;;4.30;1.00;;;;;;5036558;28;20923;-67
2022/12/09 10:48:36;;;;;;;1999.90;999.90;;;4.40;1.00;;;;;;5037664;28;20423;-66
2022/12/09 10:51:10;;;;;;;1999.90;999.90;;;4.40;1.00;;;;;;5036289;28;20457;-67
2022/12/09 10:53:42;;;;;;;1999.90;999.90;;;4.40;1.00;;;;;;5037030;28;20430;-67
2022/12/09 10:56:08;;;;;;;1999.90;999.90;;;4.50;1.00;;;;;;5038101;28;20392;-66
2022/12/09 10:58:33;;;;;;;1999.90;999.90;;;5.00;1.00;;;;;;5035828;28;20477;-67
2022/12/09 11:01:07;;;;;;;1999.90;999.90;;;4.70;1.00;;;;;;5037198;28;20503;-67
2022/12/09 11:03:34;;;;;;;1999.90;999.90;;;4.80;1.00;;;;;;5036335;28;20525;-66
2022/12/09 11:06:22;;;;;;;1999.90;999.90;;;4.90;1.00;;;;;;5039309;28;20418;-66
2022/12/09 11:08:55;;;;;;;1999.90;999.90;;;4.80;99.90;;;;;;5031823;28;20447;-66
2022/12/09 11:11:45;;;;;;;1999.90;999.90;;;4.60;99.90;;;;;;5035264;28;20460;-67
2022/12/09 11:14:21;;;;;;;1999.90;999.90;;;4.40;99.90;;;;;;5033114;28;20501;-66
2022/12/09 11:16:51;;;;;;;1999.90;999.90;;;4.30;99.90;;;;;;5034069;28;20453;-66
2022/12/09 11:19:17;;;;;;;1999.90;999.90;;;4.00;99.90;;;;;;5036427;28;20446;-66
2022/12/09 11:21:42;;;;;;;1999.90;999.90;;;3.90;99.90;;;;;;5034879;28;20407;-66
2022/12/09 11:24:23;;;;;;;1999.90;999.90;;;3.90;99.90;;;;;;5033068;28;20403;-66
2022/12/09 11:26:48;;;;;;;1999.90;999.90;;;3.80;99.90;;;;;;5038957;28;20256;-67
2022/12/09 11:29:17;;;;;;;1999.90;999.90;;;3.80;1.00;;;;;;5035177;28;20228;-67
2022/12/09 11:31:44;;;;;;;1999.90;999.90;;;3.80;99.90;;;;;;5032372;28;20163;-67
2022/12/09 11:34:26;;;;;;;1999.90;999.90;;;3.80;1.00;;;;;;5033580;28;20259;-66
2022/12/09 11:36:53;;;;;;;1999.90;999.90;;;3.80;99.90;;;;;;5034628;28;20180;-66
2022/12/09 11:39:39;;;;;;;1999.90;999.90;;;3.80;99.90;;;;;;5034181;28;20427;-67
2022/12/09 11:42:16;;;;;;;1999.90;999.90;;;3.80;99.90;;;;;;5033876;28;20241;-67
2022/12/09 11:45:15;;;;;;;1999.90;999.90;;;3.80;99.90;;;;;;5034644;28;20194;-66
2022/12/09 11:47:45;;;;;;;1999.90;999.90;;;3.80;99.90;;;;;;5032778;28;20172;-66
2022/12/09 11:50:16;;;;;;;1999.90;999.90;;;3.90;99.90;;;;;;5033269;28;20398;-66
2022/12/09 11:52:43;;;;;;;1999.90;999.90;;;3.90;99.90;;;;;;5032671;28;20195;-66
2022/12/09 11:55:12;;;;;;;1999.90;999.90;;;3.90;99.90;;;;;;5032635;28;20407;-66
2022/12/09 11:57:46;;;;;;;1999.90;999.90;;;3.80;99.90;;;;;;5032477;28;20461;-67
2022/12/09 12:00:44;;;;;;;1999.90;999.90;;;3.80;99.90;;;;;;5033005;28;20689;-66
2022/12/09 12:03:30;;;;;;;1999.90;999.90;;;3.70;99.90;;;;;;5036766;28;20477;-67
2022/12/09 12:05:57;;;;;;;1999.90;999.90;;;3.70;99.90;;;;;;5038089;28;20171;-67
2022/12/09 12:08:33;;;;;;;1999.90;999.90;;;3.60;99.90;;;;;;5039099;28;20224;-66
2022/12/09 12:11:16;;;;;;;1999.90;999.90;;;3.60;1.00;;;;;;5037824;28;20419;-66
2022/12/09 12:13:49;;;;;;;1999.90;999.90;;;3.50;1.00;;;;;;5036019;28;20215;-67
2022/12/09 12:16:23;;;;;;;1999.90;999.90;;;3.60;1.00;;;;;;5034039;28;20184;-66
2022/12/09 12:19:09;;;;;;;1999.90;999.90;;;3.60;1.00;;;;;;5035548;28;20199;-66
2022/12/09 12:22:09;;;;;;;1999.90;999.90;;;3.60;1.00;;;;;;5034034;28;20172;-66